Latest Weather Observations for Armidale Airport

IDN60801

Issued at 10:03 pm EST Tuesday 4 August 2020 (issued every 10 minutes, with the page automatically refreshed every 10 minutes)

About weather observations | Map of weather stations | Latest weather observations for NSW | Other Formats
Station Details ID: 056238 Name: ARMIDALE AIRPORT AWS Lat: -30.53 Lon: 151.62 Height: 1079.0 m
Data from the previous 72 hours. | See also: Recent months at Armidale Airport
Date/Time
EST
Temp
°C
App
Temp
°C
Dew
Point
°C
Rel
Hum
%
Delta-T
°C
Wind Press
QNH
hPa
Press
MSL
hPa
Rain since
9am
mm
Dir  Spd
km/h
Gust
km/h
Spd
kts
Gust
kts
04/10:00pm 6.1 3.0 1.6 73 1.9 W 7 9 4 5 1015.1 1014.7 0.0
04/09:30pm 6.1 3.0 1.6 73 1.9 W 7 9 4 5 1014.9 1014.5 0.0
04/09:00pm 5.6 3.8 1.5 75 1.8 CALM 0 4 0 2 1014.9 1014.5 0.0
04/08:30pm 6.5 4.9 2.2 74 1.9 CALM 0 6 0 3 1015.0 1014.6 0.0
04/08:00pm 6.5 3.7 2.0 73 2.0 WNW 6 9 3 5 1014.9 1014.5 0.0
04/07:30pm 7.3 4.5 2.2 70 2.3 WNW 6 9 3 5 1015.0 1014.6 0.0
04/07:00pm 7.8 4.5 2.5 69 2.4 WNW 9 11 5 6 1015.0 1014.6 0.0
04/06:30pm 8.2 4.5 2.2 66 2.7 W 11 15 6 8 1014.8 1014.4 0.0
04/06:00pm 8.6 4.9 2.6 66 2.7 W 11 13 6 7 1014.7 1014.3 0.0
04/05:30pm 9.8 6.2 3.1 63 3.1 W 11 19 6 10 1014.5 1014.0 0.0
04/05:00pm 11.3 7.1 3.6 59 3.6 W 15 20 8 11 1014.3 1013.8 0.0
04/04:30pm 13.1 6.8 4.0 54 4.4 W 26 35 14 19 1014.0 1013.6 0.0
04/04:00pm 13.1 5.9 2.9 50 4.8 WNW 30 37 16 20 1013.8 1013.4 0.0
04/03:30pm 14.2 7.8 3.4 48 5.2 WNW 26 35 14 19 1013.6 1013.1 0.0
04/03:00pm 14.3 7.2 3.7 49 5.1 W 30 39 16 21 1013.6 1013.1 0.0
04/02:30pm 15.1 7.7 4.2 48 5.4 WNW 32 43 17 23 1013.6 1013.1 0.0
04/02:00pm 13.5 6.2 2.4 47 5.2 WNW 30 46 16 25 1013.6 1013.1 0.0
04/01:52pm 14.5 7.7 3.3 47 5.4 WNW 28 46 15 25 1013.6 1013.1 0.0
04/01:30pm 14.5 7.3 3.0 46 5.5 WSW 30 39 16 21 1013.7 1013.2 0.0
04/01:11pm 15.0 7.5 3.5 46 5.6 W 32 59 17 32 1013.7 1013.2 0.0
04/01:00pm 14.6 8.7 4.0 49 5.2 WSW 24 32 13 17 1014.0 1013.6 0.0
04/12:30pm 14.4 7.9 4.7 52 4.8 W 28 39 15 21 1014.5 1014.0 0.0
04/12:00pm 14.2 7.2 4.2 51 4.9 WNW 30 39 16 21 1014.9 1014.5 0.0
04/11:30am 13.7 6.5 3.2 49 5.0 W 30 43 16 23 1015.4 1014.9 0.0
04/11:00am 13.4 5.6 2.6 48 5.1 WNW 33 46 18 25 1015.9 1015.5 0.0
04/10:30am 13.0 4.8 2.6 49 4.9 WNW 35 48 19 26 1016.1 1015.7 0.0
04/10:00am 13.1 6.5 4.3 55 4.3 WNW 28 35 15 19 1016.4 1016.0 0.0
04/09:30am 11.9 5.3 4.2 59 3.7 WNW 28 39 15 21 1016.8 1016.4 0.0
04/09:00am 11.0 5.7 5.1 67 2.9 WNW 22 28 12 15 1017.0 1016.7 0.0
04/08:30am 9.6 4.8 5.4 75 2.0 WNW 20 26 11 14 1016.8 1016.4 0.0
04/08:00am 7.1 4.2 4.9 86 1.0 W 9 13 5 7 1016.9 1016.5 0.0
04/07:30am 3.9 0.6 2.4 90 0.6 W 9 11 5 6 1016.9 1016.5 0.0
04/07:00am 2.9 -0.9 1.9 93 0.4 W 11 13 6 7 1017.0 1016.7 0.0
04/06:30am 2.4 -1.5 1.4 93 0.4 W 11 13 6 7 1016.9 1016.5 0.0
04/06:00am 1.0 -2.7 0.0 93 0.4 W 9 11 5 6 1016.7 1016.3 0.0
04/05:30am 2.0 -1.6 0.5 90 0.6 W 9 13 5 7 1016.6 1016.2 0.0
04/05:00am 3.4 0.0 2.1 91 0.6 WNW 9 11 5 6 1016.5 1016.1 0.0
04/04:30am 2.9 -0.2 1.6 91 0.5 WNW 7 11 4 6 1016.6 1016.2 0.0
04/04:00am 3.6 0.3 2.3 91 0.6 WNW 9 11 5 6 1016.8 1016.4 0.0
04/03:30am 3.5 0.2 2.6 94 0.4 NW 9 9 5 5 1017.0 1016.7 0.0
04/03:00am 2.9 -0.1 1.7 92 0.5 WNW 7 9 4 5 1017.1 1016.8 0.0
04/02:30am 3.4 -0.4 1.9 90 0.6 WNW 11 11 6 6 1017.6 1017.2 0.0
04/02:00am 3.3 -0.4 2.3 93 0.4 WNW 11 11 6 6 1017.7 1017.3 0.0
04/01:30am 3.4 0.6 2.2 92 0.5 W 6 9 3 5 1017.8 1017.4 0.0
04/01:00am 3.6 0.8 1.8 88 0.8 W 6 6 3 3 1018.3 1017.9 0.0
04/12:30am 4.0 1.0 2.2 88 0.8 WNW 7 9 4 5 1018.5 1018.1 0.0
04/12:00am 4.7 1.9 3.0 89 0.7 WNW 7 9 4 5 1018.5 1018.1 0.0
 
Date/Time
EST
Temp
°C
App
Temp
°C
Dew
Point
°C
Rel
Hum
%
Delta-T
°C
Wind Press
QNH
hPa
Press
MSL
hPa
Rain since
9am
mm
Dir  Spd
km/h
Gust
km/h
Spd
kts
Gust
kts
03/11:30pm 4.1 1.1 2.3 88 0.8 NNW 7 9 4 5 1018.5 1018.1 0.0
03/11:00pm 4.4 1.0 2.1 85 1.0 NW 9 11 5 6 1018.7 1018.4 0.0
03/10:30pm 4.7 1.4 2.2 84 1.1 WNW 9 11 5 6 1019.0 1018.7 0.0
03/10:00pm 5.4 2.1 2.6 82 1.2 NW 9 13 5 7 1019.3 1018.9 0.0
03/09:30pm 5.4 2.4 2.2 80 1.4 NW 7 9 4 5 1019.3 1018.9 0.0
03/09:00pm 5.4 2.4 1.9 78 1.5 NW 7 9 4 5 1019.1 1018.8 0.0
03/08:30pm 6.3 3.0 2.4 76 1.7 NW 9 11 5 6 1019.3 1018.9 0.0
03/08:00pm 6.7 3.9 3.1 78 1.6 NW 7 9 4 5 1019.1 1018.8 0.0
03/07:30pm 6.4 2.8 3.0 79 1.5 NW 11 15 6 8 1018.8 1018.5 0.0
03/07:00pm 6.6 3.3 2.7 76 1.7 WNW 9 11 5 6 1018.8 1018.5 0.0
03/06:30pm 8.0 4.5 3.3 72 2.1 NNW 11 11 6 6 1018.6 1018.2 0.0
03/06:00pm 8.9 6.2 3.7 70 2.4 NNW 7 9 4 5 1018.6 1018.2 0.0
03/05:30pm 8.7 5.2 3.5 70 2.4 NW 11 15 6 8 1018.6 1018.2 0.0
03/05:00pm 10.7 7.0 4.4 65 3.0 NW 13 19 7 10 1018.7 1018.4 0.0
03/04:30pm 12.4 8.0 4.6 59 3.8 NW 17 22 9 12 1018.8 1018.5 0.0
03/04:00pm 12.7 8.7 4.7 58 3.9 W 15 20 8 11 1018.9 1018.6 0.0
03/03:30pm 13.8 9.0 4.7 54 4.5 WNW 19 26 10 14 1018.9 1018.6 0.0
03/03:00pm 13.7 8.8 4.0 52 4.7 W 19 24 10 13 1019.0 1018.7 0.0
03/02:30pm 13.8 8.3 3.9 51 4.8 WNW 22 33 12 18 1019.1 1018.8 0.0
03/02:00pm 13.6 7.9 5.0 56 4.2 WNW 24 37 13 20 1019.3 1018.9 0.0
03/01:30pm 13.3 8.5 5.5 59 3.9 WNW 20 28 11 15 1019.6 1019.3 0.0
03/01:00pm 12.9 7.3 5.3 60 3.8 W 24 33 13 18 1020.0 1019.7 0.0
03/12:30pm 12.6 6.1 4.6 58 3.9 W 28 35 15 19 1020.6 1020.3 0.0
03/12:00pm 12.7 5.8 4.7 58 3.9 W 30 39 16 21 1021.0 1020.7 0.0
03/11:30am 12.3 5.2 3.8 56 4.1 WNW 30 39 16 21 1021.6 1021.3 0.0
03/11:00am 11.7 6.0 4.9 63 3.3 W 24 33 13 18 1021.9 1021.7 0.0
03/10:30am 11.9 6.7 5.3 64 3.2 WNW 22 32 12 17 1022.2 1022.0 0.0
03/10:00am 12.2 7.8 7.5 73 2.4 W 20 30 11 16 1022.5 1022.2 0.0
03/09:30am 9.8 5.4 6.5 80 1.6 W 19 26 10 14 1022.9 1022.7 0.0
03/09:00am 9.6 5.2 7.5 87 1.1 NW 20 24 11 13 1022.9 1022.7 0.2
03/08:30am 7.6 4.7 6.5 93 0.5 WNW 11 19 6 10 1023.0 1022.8 0.2
03/08:00am 4.9 2.0 4.8 99 0.0 W 9 11 5 6 1022.9 1022.7 0.2
03/07:30am 2.9 0.0 2.8 99 0.0 N 7 7 4 4 1022.6 1022.3 0.2
03/07:00am 1.9 -1.1 1.8 99 0.0 ENE 7 7 4 4 1022.1 1021.9 0.0
03/06:46am 2.0 -0.8 1.9 99 0.0 ENE 6 7 3 4 1022.0 1021.8 0.0
03/06:30am 0.4 -2.9 0.3 99 0.0 ENE 7 11 4 6 1022.0 1021.8 0.0
03/06:25am 0.1 -3.0 0.0 99 0.0 ENE 6 9 3 5 1021.9 1021.7 0.0
03/06:00am 1.4 -0.4 1.3 99 0.0 CALM 0 0 0 0 1021.8 1021.5 0.0
03/05:30am 2.1 0.4 2.0 99 0.0 CALM 0 0 0 0 1022.0 1021.8 0.0
03/05:00am 2.2 0.5 2.1 99 0.0 CALM 0 0 0 0 1021.9 1021.7 0.0
03/04:30am 1.4 -0.4 1.3 99 0.0 CALM 0 6 0 3 1021.7 1021.4 0.0
03/04:00am 2.0 -0.8 1.9 99 0.0 E 6 7 3 4 1021.7 1021.4 0.0
03/03:30am 2.3 -0.5 2.2 99 0.0 SE 6 7 3 4 1021.7 1021.4 0.0
03/03:00am 3.0 0.2 2.9 99 0.0 ENE 7 9 4 5 1021.8 1021.5 0.0
03/02:30am 2.3 -1.8 2.2 99 0.0 ENE 13 15 7 8 1022.0 1021.8 0.0
03/02:00am 2.1 -1.7 2.0 99 0.0 NE 11 13 6 7 1022.2 1022.0 0.0
03/01:30am 2.5 -1.6 2.4 99 0.0 ENE 13 13 7 7 1022.4 1022.1 0.0
03/01:00am 2.8 -1.3 2.4 97 0.2 ENE 13 15 7 8 1022.9 1022.7 0.0
03/12:30am 3.6 -0.5 2.4 92 0.5 ENE 13 17 7 9 1023.1 1022.9 0.0
03/12:00am 4.2 -0.2 2.9 91 0.6 E 15 17 8 9 1023.4 1023.1 0.0
 
Date/Time
EST
Temp
°C
App
Temp
°C
Dew
Point
°C
Rel
Hum
%
Delta-T
°C
Wind Press
QNH
hPa
Press
MSL
hPa
Rain since
9am
mm
Dir  Spd
km/h
Gust
km/h
Spd
kts
Gust
kts
02/11:30pm 3.5 -0.9 2.8 95 0.3 ENE 15 17 8 9 1023.5 1023.3 0.0
02/11:00pm 2.5 -2.2 1.0 90 0.6 ENE 15 15 8 8 1023.6 1023.4 0.0
02/10:30pm 3.2 -1.4 1.6 89 0.7 ENE 15 17 8 9 1023.7 1023.5 0.0
02/10:00pm 2.7 -1.7 0.1 83 1.0 ENE 13 13 7 7 1023.6 1023.4 0.0
02/09:30pm 6.4 2.5 3.2 80 1.4 E 13 17 7 9 1023.7 1023.5 0.0
02/09:00pm 5.8 2.0 1.7 75 1.8 E 11 15 6 8 1024.0 1023.8 0.0
02/08:30pm 7.3 5.2 1.6 67 2.5 NE 2 7 1 4 1024.1 1023.9 0.0
02/08:00pm 5.9 3.0 1.4 73 1.9 NE 6 9 3 5 1024.1 1023.9 0.0
02/07:30pm 6.4 2.1 1.1 69 2.3 SE 13 17 7 9 1024.2 1024.0 0.0
02/07:00pm 8.6 5.6 0.6 57 3.4 W 6 6 3 3 1024.0 1023.8 0.0
02/06:30pm 9.4 6.4 1.1 56 3.6 W 6 7 3 4 1024.0 1023.8 0.0
02/06:00pm 9.4 5.8 0.8 55 3.7 W 9 9 5 5 1023.9 1023.7 0.0
02/05:30pm 10.4 7.4 2.0 56 3.8 W 7 9 4 5 1024.0 1023.8 0.0
02/05:00pm 12.8 9.9 2.4 49 4.8 W 7 9 4 5 1023.8 1023.6 0.0
02/04:30pm 14.5 11.5 2.1 43 5.8 W 7 9 4 5 1023.7 1023.5 0.0
02/04:00pm 15.0 11.8 0.8 38 6.5 W 7 9 4 5 1023.7 1023.5 0.0
02/03:30pm 15.4 11.6 -0.8 33 7.2 WSW 9 13 5 7 1023.6 1023.4 0.0
02/03:00pm 15.2 11.1 -0.1 35 6.9 WSW 11 15 6 8 1023.6 1023.4 0.0
02/02:30pm 14.9 10.7 1.8 41 6.1 SW 13 19 7 10 1023.6 1023.4 0.0
02/02:00pm 14.8 10.5 1.3 40 6.2 WSW 13 17 7 9 1023.8 1023.6 0.0
02/01:30pm 14.5 10.8 2.1 43 5.8 WSW 11 19 6 10 1023.9 1023.7 0.0
02/01:00pm 14.3 10.6 2.2 44 5.6 WSW 11 17 6 9 1024.1 1023.9 0.0
02/12:30pm 13.9 9.9 2.8 47 5.3 W 13 24 7 13 1024.6 1024.4 0.0
02/12:00pm 13.1 9.0 2.1 47 5.1 W 13 20 7 11 1025.2 1025.1 0.0
02/11:30am 13.0 8.1 2.3 48 5.0 W 17 24 9 13 1025.8 1025.6 0.0
02/11:00am 12.5 8.1 4.5 58 3.9 WNW 17 20 9 11 1026.1 1026.0 0.0
02/10:30am 11.6 7.2 4.8 63 3.3 WNW 17 20 9 11 1026.4 1026.2 0.0
02/10:00am 11.3 7.1 5.8 69 2.7 WNW 17 20 9 11 1026.7 1026.6 0.0
02/09:30am 9.6 6.5 7.2 85 1.2 W 13 17 7 9 1026.8 1026.7 0.0
02/09:00am 8.9 6.2 7.4 90 0.8 W 11 15 6 8 1026.7 1026.6 0.0
02/08:30am 7.8 5.7 6.6 92 0.6 W 7 9 4 5 1026.6 1026.4 0.0
02/08:00am 6.2 3.6 6.1 99 0.0 WNW 9 11 5 6 1026.2 1026.1 0.0
02/07:30am 4.2 1.2 4.1 99 0.0 NW 9 11 5 6 1026.1 1026.0 0.0
02/07:00am 3.0 1.5 2.9 99 0.0 CALM 0 0 0 0 1025.9 1025.8 0.0
02/06:30am 2.8 1.2 2.7 99 0.0 CALM 0 0 0 0 1025.6 1025.4 0.0
02/06:00am 2.6 1.0 2.5 99 0.0 CALM 0 6 0 3 1025.2 1025.1 0.0
02/05:30am 2.4 -0.6 2.3 99 0.0 NNE 7 7 4 4 1024.9 1024.7 0.0
02/05:00am 2.8 -0.1 2.7 99 0.0 NNE 7 7 4 4 1024.8 1024.6 0.0
02/04:30am 2.9 0.0 2.8 99 0.0 NNE 7 7 4 4 1024.8 1024.6 0.0
02/04:00am 2.4 -0.6 2.3 99 0.0 NNE 7 7 4 4 1024.7 1024.5 0.0
02/03:30am 2.6 -0.3 2.5 99 0.0 NNE 7 7 4 4 1024.6 1024.4 0.0
02/03:00am 4.0 2.7 3.9 99 0.0 CALM 0 2 0 1 1024.7 1024.5 0.0
02/02:30am 3.8 2.4 3.7 99 0.0 CALM 0 0 0 0 1024.8 1024.6 0.0
02/02:00am 3.0 1.5 2.9 99 0.0 CALM 0 0 0 0 1025.4 1025.2 0.0
02/01:30am 3.5 1.3 3.4 99 0.0 NNE 4 6 2 3 1025.4 1025.2 0.0
02/01:00am 4.1 2.0 4.0 99 0.0 NNE 4 7 2 4 1025.7 1025.5 0.0
02/12:30am 4.9 3.7 4.8 99 0.0 CALM 0 0 0 0 1025.7 1025.5 0.0
02/12:00am 4.5 3.2 4.1 97 0.2 CALM 0 0 0 0 1025.9 1025.8 0.0
 
Date/Time
EST
Temp
°C
App
Temp
°C
Dew
Point
°C
Rel
Hum
%
Delta-T
°C
Wind Press
QNH
hPa
Press
MSL
hPa
Rain since
9am
mm
Dir  Spd
km/h
Gust
km/h
Spd
kts
Gust
kts
01/11:30pm 4.6 3.3 4.0 96 0.3 CALM 0 0 0 0 1026.0 1025.9 0.0
01/11:00pm 4.2 1.7 3.9 98 0.1 NNE 6 6 3 3 1026.1 1026.0 0.0
01/10:30pm 4.0 1.5 3.9 99 0.0 NNE 6 7 3 4 1025.9 1025.8 0.0

Other formats

Comma delimited format used in spreadsheet applications
http://www.bom.gov.au/fwo/IDN60801/IDN60801.95773.axf

JavaScript Object Notation format (JSON) in row-major order
http://www.bom.gov.au/fwo/IDN60801/IDN60801.95773.json

Data quality

Most of these data are generated automatically and are frequently updated. Quality checks on data are not normally performed. It is possible for incorrect values to appear. Refer to information at About Latest Weather Observations and please check the disclaimer before using these data.